createdAt,value
2022-08-28T00:01:46.190Z,19.40
2022-08-28T00:04:12.925Z,19.40
2022-08-28T00:06:39.893Z,19.50
2022-08-28T00:09:08.024Z,19.50
2022-08-28T00:11:38.997Z,19.50
2022-08-28T00:14:10.516Z,19.40
2022-08-28T00:16:37.250Z,19.50
2022-08-28T00:19:04.658Z,19.50
2022-08-28T00:21:33.233Z,19.50
2022-08-28T00:24:00.576Z,19.50
2022-08-28T00:26:46.376Z,19.50
2022-08-28T00:29:13.306Z,19.60
2022-08-28T00:31:40.130Z,19.60
2022-08-28T00:34:08.829Z,19.60
2022-08-28T00:36:37.387Z,19.60
2022-08-28T00:39:05.817Z,19.50
2022-08-28T00:41:35.102Z,19.60
2022-08-28T00:44:24.333Z,19.60
2022-08-28T00:46:54.200Z,19.60
2022-08-28T00:49:34.083Z,19.60
2022-08-28T00:52:05.791Z,19.50
2022-08-28T00:54:35.379Z,19.50
2022-08-28T00:57:09.485Z,19.50
2022-08-28T00:59:39.662Z,19.40
2022-08-28T01:02:07.130Z,19.40
2022-08-28T01:04:34.536Z,19.40
2022-08-28T01:07:06.476Z,19.40
2022-08-28T01:09:34.656Z,19.40
2022-08-28T01:12:10.358Z,19.40
2022-08-28T01:14:40.166Z,19.40
2022-08-28T01:17:08.558Z,19.40
2022-08-28T01:19:43.933Z,19.30
2022-08-28T01:22:22.417Z,19.30
2022-08-28T01:24:51.211Z,19.30
2022-08-28T01:27:18.287Z,19.30
2022-08-28T01:29:47.932Z,19.10
2022-08-28T01:32:32.474Z,19.10
2022-08-28T01:34:59.327Z,19.00
2022-08-28T01:37:26.118Z,19.00
2022-08-28T01:39:54.298Z,18.90
2022-08-28T01:42:22.699Z,18.90
2022-08-28T01:44:52.493Z,18.80
2022-08-28T01:47:19.245Z,18.80
2022-08-28T01:49:46.076Z,18.80
2022-08-28T01:52:12.821Z,18.80
2022-08-28T01:54:40.366Z,18.80
2022-08-28T01:57:07.560Z,18.80
2022-08-28T01:59:34.364Z,18.70
2022-08-28T02:02:01.369Z,18.70
2022-08-28T02:04:31.919Z,18.70
2022-08-28T02:06:59.339Z,18.70
2022-08-28T02:09:26.191Z,18.70
2022-08-28T02:11:53.981Z,18.60
2022-08-28T02:14:22.458Z,18.60
2022-08-28T02:16:49.884Z,18.60
2022-08-28T02:19:17.125Z,18.60
2022-08-28T02:21:43.875Z,18.60
2022-08-28T02:24:10.603Z,18.60
2022-08-28T02:26:37.343Z,18.50
2022-08-28T02:29:04.577Z,18.60
2022-08-28T02:31:31.384Z,18.50
2022-08-28T02:33:58.512Z,18.40
2022-08-28T02:36:25.775Z,18.40
2022-08-28T02:38:56.973Z,18.40
2022-08-28T02:41:24.598Z,18.40
2022-08-28T02:43:51.323Z,18.40
2022-08-28T02:46:18.161Z,18.40
2022-08-28T02:48:45.597Z,18.40
2022-08-28T02:51:14.671Z,18.40
2022-08-28T02:53:41.844Z,18.40
2022-08-28T02:56:09.811Z,18.50
2022-08-28T02:58:36.791Z,18.40
2022-08-28T03:01:07.008Z,18.40
2022-08-28T03:03:34.212Z,18.40
2022-08-28T03:06:03.368Z,18.30
2022-08-28T03:08:32.253Z,18.30
2022-08-28T03:11:00.623Z,18.30
2022-08-28T03:13:28.286Z,18.30
2022-08-28T03:15:56.226Z,18.30
2022-08-28T03:18:25.412Z,18.30
2022-08-28T03:20:52.841Z,18.30
2022-08-28T03:23:28.724Z,18.30
2022-08-28T03:26:16.973Z,18.20
2022-08-28T03:28:47.148Z,18.20
2022-08-28T03:31:14.751Z,18.20
2022-08-28T03:33:42.872Z,18.10
2022-08-28T03:36:13.432Z,18.00
2022-08-28T03:38:41.671Z,18.10
2022-08-28T03:41:14.548Z,18.00
2022-08-28T03:43:41.951Z,18.10
2022-08-28T03:46:12.637Z,18.20
2022-08-28T03:48:42.610Z,18.30
2022-08-28T03:51:14.808Z,18.20
2022-08-28T03:53:42.510Z,18.20
2022-08-28T03:56:12.408Z,18.10
2022-08-28T03:58:40.857Z,18.10
2022-08-28T04:01:08.572Z,18.00
2022-08-28T04:03:36.511Z,17.90
2022-08-28T04:06:03.545Z,17.90
2022-08-28T04:08:30.260Z,17.80
2022-08-28T04:10:59.588Z,17.80
2022-08-28T04:13:27.672Z,17.80
2022-08-28T04:16:02.878Z,17.80
2022-08-28T04:18:33.484Z,17.90
2022-08-28T04:21:00.164Z,17.90
2022-08-28T04:23:26.908Z,17.90
2022-08-28T04:25:53.995Z,18.00
2022-08-28T04:28:20.741Z,18.00
2022-08-28T04:30:47.777Z,18.10
2022-08-28T04:33:14.647Z,18.00
2022-08-28T04:35:42.014Z,18.10
2022-08-28T04:38:08.713Z,18.10
2022-08-28T04:40:40.225Z,18.20
2022-08-28T04:43:08.548Z,18.10
2022-08-28T04:45:45.878Z,18.00
2022-08-28T04:48:14.057Z,18.00
2022-08-28T04:50:47.315Z,18.00
2022-08-28T04:53:19.848Z,18.00
2022-08-28T04:55:54.196Z,18.20
2022-08-28T04:58:23.623Z,18.20
2022-08-28T05:00:52.785Z,18.20
2022-08-28T05:03:19.901Z,18.30
2022-08-28T05:05:50.363Z,18.40
2022-08-28T05:08:20.017Z,18.50
2022-08-28T05:10:47.083Z,18.50
2022-08-28T05:13:15.763Z,18.60
2022-08-28T05:15:45.179Z,18.60
2022-08-28T05:18:14.221Z,18.60
2022-08-28T05:20:43.896Z,18.70
2022-08-28T05:23:10.719Z,18.70
2022-08-28T05:25:40.737Z,18.90
2022-08-28T05:28:11.932Z,18.90
2022-08-28T05:30:40.678Z,19.00
2022-08-28T05:33:10.560Z,19.20
2022-08-28T05:35:39.749Z,19.20
2022-08-28T05:38:07.471Z,19.20
2022-08-28T05:40:34.800Z,19.20
2022-08-28T05:43:01.517Z,19.40
2022-08-28T05:45:28.208Z,19.40
2022-08-28T05:47:55.154Z,19.50
2022-08-28T05:50:21.847Z,19.60
2022-08-28T05:52:48.826Z,19.70
2022-08-28T05:55:15.560Z,19.80
2022-08-28T05:57:42.640Z,20.00
2022-08-28T06:00:13.717Z,20.00
2022-08-28T06:02:42.021Z,20.10
2022-08-28T06:05:13.061Z,20.20
2022-08-28T06:07:41.101Z,20.20
2022-08-28T06:10:10.700Z,20.40
2022-08-28T06:12:37.992Z,20.40
2022-08-28T06:15:05.612Z,20.50
2022-08-28T06:17:32.329Z,20.60
2022-08-28T06:19:59.046Z,20.70
2022-08-28T06:22:25.716Z,20.80
2022-08-28T06:24:53.970Z,20.90
2022-08-28T06:27:20.811Z,21.10
2022-08-28T06:29:47.834Z,21.20
2022-08-28T06:32:14.737Z,21.30
2022-08-28T06:34:41.694Z,21.40
2022-08-28T06:37:09.894Z,21.50
2022-08-28T06:39:36.668Z,21.50
2022-08-28T06:42:03.869Z,21.60
2022-08-28T06:44:32.190Z,21.70
2022-08-28T06:47:00.408Z,21.80
2022-08-28T06:49:27.176Z,21.90
2022-08-28T06:51:53.888Z,22.00
2022-08-28T06:54:23.186Z,22.10
2022-08-28T06:56:51.367Z,22.20
2022-08-28T06:59:18.218Z,22.30
2022-08-28T07:01:45.072Z,22.40
2022-08-28T07:04:14.448Z,22.50
2022-08-28T07:06:46.805Z,22.50
2022-08-28T07:09:13.889Z,22.60
2022-08-28T07:11:43.917Z,22.70
2022-08-28T07:14:10.856Z,22.90
2022-08-28T07:16:38.785Z,22.90
2022-08-28T07:19:07.567Z,23.00
2022-08-28T07:21:38.307Z,23.10
2022-08-28T07:24:06.641Z,23.20
2022-08-28T07:26:36.159Z,23.30
2022-08-28T07:29:10.220Z,23.30
2022-08-28T07:31:43.984Z,23.40
2022-08-28T07:34:11.829Z,23.50
2022-08-28T07:36:39.119Z,23.60
2022-08-28T07:39:07.083Z,23.70
2022-08-28T07:41:37.326Z,23.70
2022-08-28T07:44:22.955Z,23.90
2022-08-28T07:46:54.397Z,24.00
2022-08-28T07:49:21.209Z,24.00
2022-08-28T07:51:47.915Z,24.20
2022-08-28T07:54:18.052Z,24.20
2022-08-28T07:56:45.444Z,24.30
2022-08-28T07:59:12.490Z,24.40
2022-08-28T08:01:46.530Z,24.40
2022-08-28T08:04:16.173Z,24.50
2022-08-28T08:06:44.085Z,24.50
2022-08-28T08:09:14.256Z,24.50
2022-08-28T08:11:41.259Z,24.50
2022-08-28T08:14:08.283Z,24.60
2022-08-28T08:16:38.979Z,24.70
2022-08-28T08:19:09.743Z,24.80
2022-08-28T08:21:36.870Z,24.90
2022-08-28T08:24:04.886Z,25.00
2022-08-28T08:26:32.336Z,25.10
2022-08-28T08:28:59.784Z,25.10
2022-08-28T08:31:35.276Z,25.30
2022-08-28T08:34:07.911Z,25.30
2022-08-28T08:36:37.657Z,25.40
2022-08-28T08:39:06.546Z,25.40
2022-08-28T08:41:49.919Z,25.60
2022-08-28T08:44:40.432Z,25.70
2022-08-28T08:47:17.061Z,25.80
2022-08-28T08:49:57.284Z,25.80
2022-08-28T08:52:44.981Z,25.80
2022-08-28T08:55:24.122Z,25.60
2022-08-28T08:58:00.938Z,25.50
2022-08-28T09:00:31.016Z,25.50
2022-08-28T09:03:06.493Z,25.60
2022-08-28T09:05:47.818Z,25.80
2022-08-28T09:08:26.468Z,25.90
2022-08-28T09:11:13.118Z,26.10
2022-08-28T09:13:59.394Z,26.30
2022-08-28T09:16:35.528Z,26.50
2022-08-28T09:19:03.059Z,26.60
2022-08-28T09:21:33.648Z,26.70
2022-08-28T09:24:05.788Z,26.70
2022-08-28T09:26:34.565Z,26.80
2022-08-28T09:29:08.164Z,26.80
2022-08-28T09:31:41.245Z,26.80
2022-08-28T09:34:28.410Z,26.90
2022-08-28T09:36:57.067Z,27.00
2022-08-28T09:39:26.459Z,27.00
2022-08-28T09:42:41.146Z,27.00
2022-08-28T09:45:21.003Z,27.00
2022-08-28T09:47:50.840Z,27.20
2022-08-28T09:50:28.872Z,27.20
2022-08-28T09:53:14.676Z,27.10
2022-08-28T09:56:05.946Z,27.20
2022-08-28T09:58:44.870Z,27.80
2022-08-28T10:01:34.955Z,28.70
2022-08-28T10:04:11.925Z,29.40
2022-08-28T10:06:40.193Z,29.90
2022-08-28T10:09:10.343Z,30.20
2022-08-28T10:11:37.025Z,30.50
2022-08-28T10:14:31.737Z,30.70
2022-08-28T10:17:15.510Z,31.00
2022-08-28T10:20:10.386Z,30.90
2022-08-28T10:23:04.391Z,30.80
2022-08-28T10:25:50.911Z,30.80
2022-08-28T10:28:45.165Z,30.70
2022-08-28T10:31:36.633Z,30.70
2022-08-28T10:34:28.738Z,30.50
2022-08-28T10:37:20.995Z,30.40
2022-08-28T10:40:02.638Z,30.20
2022-08-28T10:42:39.719Z,30.10
2022-08-28T10:45:17.136Z,30.10
2022-08-28T10:47:49.262Z,29.90
2022-08-28T10:50:24.812Z,29.90
2022-08-28T10:53:03.275Z,29.80
2022-08-28T10:55:39.524Z,29.70
2022-08-28T10:58:24.888Z,29.20
2022-08-28T11:00:55.905Z,29.30
2022-08-28T11:03:34.482Z,29.50
2022-08-28T11:06:12.791Z,29.30
2022-08-28T11:08:41.662Z,29.20
2022-08-28T11:11:35.031Z,29.20
2022-08-28T11:14:03.213Z,29.30
2022-08-28T11:16:30.191Z,29.30
2022-08-28T11:19:24.778Z,29.10
2022-08-28T11:21:56.251Z,29.20
2022-08-28T11:24:44.088Z,29.10
2022-08-28T11:27:26.923Z,29.10
2022-08-28T11:30:09.733Z,29.10
2022-08-28T11:32:51.711Z,29.00
2022-08-28T11:35:44.285Z,28.90
2022-08-28T11:38:12.031Z,28.60
2022-08-28T11:40:40.673Z,28.50
2022-08-28T11:43:16.979Z,28.50
2022-08-28T11:45:46.777Z,28.70
2022-08-28T11:48:57.125Z,28.70
2022-08-28T11:51:50.119Z,28.60
2022-08-28T11:54:34.642Z,28.60
2022-08-28T11:57:21.595Z,28.60
2022-08-28T12:00:16.412Z,28.30
2022-08-28T12:02:47.964Z,28.30
2022-08-28T12:05:14.704Z,28.30
2022-08-28T12:07:44.537Z,28.30
2022-08-28T12:10:20.620Z,28.20
2022-08-28T12:12:47.263Z,28.10
2022-08-28T12:15:29.573Z,28.10
2022-08-28T12:18:11.899Z,28.20
2022-08-28T12:20:51.409Z,28.30
2022-08-28T12:23:30.636Z,28.20
2022-08-28T12:26:06.062Z,28.30
2022-08-28T12:28:47.583Z,28.20
2022-08-28T12:31:47.763Z,28.30
2022-08-28T12:34:32.365Z,28.50
2022-08-28T12:37:01.658Z,28.70
2022-08-28T12:39:31.034Z,28.80
2022-08-28T12:41:58.935Z,28.60
2022-08-28T12:44:30.981Z,28.60
2022-08-28T12:46:59.449Z,28.60
2022-08-28T12:49:30.536Z,28.60
2022-08-28T12:52:25.283Z,28.50
2022-08-28T12:54:55.471Z,28.40
2022-08-28T12:57:24.874Z,28.20
2022-08-28T12:59:54.976Z,28.10
2022-08-28T13:02:31.289Z,28.10
2022-08-28T13:05:03.028Z,28.00
2022-08-28T13:07:34.469Z,27.90
2022-08-28T13:10:25.517Z,27.80
2022-08-28T13:13:13.959Z,27.80
2022-08-28T13:15:49.264Z,27.80
2022-08-28T13:18:35.075Z,27.80
2022-08-28T13:21:58.625Z,27.80
2022-08-28T13:24:36.684Z,27.70
2022-08-28T13:27:08.944Z,27.70
2022-08-28T13:29:37.259Z,27.50
2022-08-28T13:32:08.457Z,27.50
2022-08-28T13:34:38.096Z,27.40
2022-08-28T13:37:19.168Z,27.20
2022-08-28T13:39:47.599Z,27.10
2022-08-28T13:42:16.960Z,27.00
2022-08-28T13:44:53.814Z,26.90
2022-08-28T13:47:20.544Z,26.80
2022-08-28T13:49:47.504Z,26.60
2022-08-28T13:52:14.559Z,26.40
2022-08-28T13:54:45.218Z,26.40
2022-08-28T13:57:13.537Z,26.30
2022-08-28T13:59:40.994Z,26.20
2022-08-28T14:02:30.733Z,26.20
2022-08-28T14:04:57.819Z,26.00
2022-08-28T14:07:24.601Z,26.00
2022-08-28T14:09:56.084Z,25.90
2022-08-28T14:12:31.346Z,25.80
2022-08-28T14:15:01.277Z,25.70
2022-08-28T14:17:27.998Z,25.70
2022-08-28T14:19:54.801Z,25.60
2022-08-28T14:22:21.487Z,25.50
2022-08-28T14:24:48.579Z,25.50
2022-08-28T14:27:15.245Z,25.40
2022-08-28T14:29:41.969Z,25.30
2022-08-28T14:32:08.884Z,25.30
2022-08-28T14:34:36.267Z,25.20
2022-08-28T14:37:02.981Z,25.20
2022-08-28T14:39:31.062Z,25.10
2022-08-28T14:41:58.251Z,25.00
2022-08-28T14:44:26.030Z,24.90
2022-08-28T14:46:56.134Z,24.80
2022-08-28T14:49:24.738Z,24.80
2022-08-28T14:51:55.054Z,24.70
2022-08-28T14:54:23.665Z,24.60
2022-08-28T14:56:52.015Z,24.60
2022-08-28T14:59:24.937Z,24.50
2022-08-28T15:01:53.153Z,24.50
2022-08-28T15:04:22.861Z,24.40
2022-08-28T15:06:50.868Z,24.40
2022-08-28T15:09:19.821Z,24.30
2022-08-28T15:11:46.873Z,24.20
2022-08-28T15:14:13.991Z,24.10
2022-08-28T15:16:46.156Z,24.00
2022-08-28T15:19:16.126Z,23.90
2022-08-28T15:21:44.819Z,23.80
2022-08-28T15:24:13.413Z,23.70
2022-08-28T15:26:40.238Z,23.60
2022-08-28T15:29:07.973Z,23.60
2022-08-28T15:31:38.243Z,23.50
2022-08-28T15:34:07.277Z,23.40
2022-08-28T15:36:43.226Z,23.40
2022-08-28T15:39:29.216Z,23.30
2022-08-28T15:41:56.713Z,23.30
2022-08-28T15:44:24.126Z,23.10
2022-08-28T15:46:53.902Z,23.10
2022-08-28T15:49:23.747Z,23.00
2022-08-28T15:51:51.112Z,22.90
2022-08-28T15:54:18.232Z,22.90
2022-08-28T15:56:46.271Z,22.70
2022-08-28T15:59:17.663Z,22.60
2022-08-28T16:01:44.966Z,22.60
2022-08-28T16:04:12.355Z,22.60
2022-08-28T16:06:39.572Z,22.50
2022-08-28T16:09:08.133Z,22.40
2022-08-28T16:11:34.903Z,22.40
2022-08-28T16:14:05.504Z,22.40
2022-08-28T16:16:32.575Z,22.40
2022-08-28T16:18:59.336Z,22.40
2022-08-28T16:21:27.520Z,22.30
2022-08-28T16:23:55.654Z,22.20
2022-08-28T16:26:22.499Z,22.20
2022-08-28T16:28:49.649Z,22.20
2022-08-28T16:31:20.460Z,22.20
2022-08-28T16:33:49.766Z,22.10
2022-08-28T16:36:17.030Z,22.10
2022-08-28T16:38:46.256Z,22.10
2022-08-28T16:41:16.974Z,22.10
2022-08-28T16:43:44.502Z,22.10
2022-08-28T16:46:16.951Z,22.00
2022-08-28T16:48:44.750Z,22.10
2022-08-28T16:51:12.640Z,22.00
2022-08-28T16:53:43.136Z,22.00
2022-08-28T16:56:11.721Z,21.90
2022-08-28T16:58:39.826Z,21.80
2022-08-28T17:01:07.103Z,21.80
2022-08-28T17:03:35.077Z,21.80
2022-08-28T17:06:29.935Z,21.70
2022-08-28T17:08:58.103Z,21.80
2022-08-28T17:11:28.406Z,21.70
2022-08-28T17:13:55.890Z,21.80
2022-08-28T17:16:25.342Z,21.70
2022-08-28T17:18:52.937Z,21.80
2022-08-28T17:21:40.748Z,21.70
2022-08-28T17:24:09.117Z,21.70
2022-08-28T17:26:35.835Z,21.80
2022-08-28T17:29:03.392Z,21.70
2022-08-28T17:31:30.225Z,21.80
2022-08-28T17:33:57.371Z,21.70
2022-08-28T17:36:32.428Z,21.70
2022-08-28T17:39:03.831Z,21.70
2022-08-28T17:41:31.613Z,21.70
2022-08-28T17:44:00.141Z,21.70
2022-08-28T17:46:27.039Z,21.70
2022-08-28T17:48:55.466Z,21.60
2022-08-28T17:51:42.642Z,21.60
2022-08-28T17:54:18.264Z,21.50
2022-08-28T17:56:45.612Z,21.50
2022-08-28T17:59:12.667Z,21.50
2022-08-28T18:01:41.738Z,21.40
2022-08-28T18:04:09.037Z,21.40
2022-08-28T18:06:36.471Z,21.40
2022-08-28T18:09:04.600Z,21.40
2022-08-28T18:11:31.568Z,21.40
2022-08-28T18:13:59.822Z,21.30
2022-08-28T18:16:31.132Z,21.30
2022-08-28T18:18:59.311Z,21.30
2022-08-28T18:21:26.178Z,21.30
2022-08-28T18:23:54.231Z,21.30
2022-08-28T18:26:20.970Z,21.30
2022-08-28T18:28:48.401Z,21.20
2022-08-28T18:31:17.710Z,21.20
2022-08-28T18:33:44.753Z,21.20
2022-08-28T18:36:13.765Z,21.20
2022-08-28T18:38:41.868Z,21.10
2022-08-28T18:41:09.607Z,21.10
2022-08-28T18:43:36.738Z,21.10
2022-08-28T18:46:07.149Z,21.10
2022-08-28T18:48:34.536Z,21.00
2022-08-28T18:51:01.951Z,21.00
2022-08-28T18:53:29.415Z,21.00
2022-08-28T18:55:56.168Z,21.00
2022-08-28T18:58:23.652Z,20.90
2022-08-28T19:00:51.162Z,20.90
2022-08-28T19:03:18.092Z,20.90
2022-08-28T19:05:44.943Z,20.90
2022-08-28T19:08:12.453Z,20.90
2022-08-28T19:10:39.304Z,21.00
2022-08-28T19:13:06.864Z,20.90
2022-08-28T19:15:35.679Z,20.90
2022-08-28T19:18:04.199Z,20.90
2022-08-28T19:20:31.078Z,20.90
2022-08-28T19:22:59.051Z,20.90
2022-08-28T19:25:29.420Z,20.90
2022-08-28T19:28:01.462Z,20.90
2022-08-28T19:30:34.262Z,21.00
2022-08-28T19:33:04.102Z,20.90
2022-08-28T19:35:31.034Z,20.90
2022-08-28T19:37:57.911Z,20.90
2022-08-28T19:40:24.703Z,20.90
2022-08-28T19:42:51.926Z,20.90
2022-08-28T19:45:19.795Z,20.90
2022-08-28T19:47:47.096Z,20.90
2022-08-28T19:50:15.118Z,20.80
2022-08-28T19:52:43.424Z,20.80
2022-08-28T19:55:16.492Z,20.80
2022-08-28T19:57:48.083Z,20.80
2022-08-28T20:00:20.569Z,20.80
2022-08-28T20:02:48.226Z,20.70
2022-08-28T20:05:16.009Z,20.80
2022-08-28T20:07:43.705Z,20.70
2022-08-28T20:10:11.557Z,20.70
2022-08-28T20:12:38.572Z,20.60
2022-08-28T20:15:13.294Z,20.70
2022-08-28T20:17:43.928Z,20.60
2022-08-28T20:20:12.183Z,20.60
2022-08-28T20:22:39.114Z,20.60
2022-08-28T20:25:07.782Z,20.60
2022-08-28T20:27:34.764Z,20.60
2022-08-28T20:30:10.454Z,20.60
2022-08-28T20:32:40.388Z,20.60
2022-08-28T20:35:09.163Z,20.50
2022-08-28T20:37:39.387Z,20.40
2022-08-28T20:40:18.598Z,20.40
2022-08-28T20:42:46.488Z,20.40
2022-08-28T20:45:15.110Z,20.40
2022-08-28T20:47:41.974Z,20.40
2022-08-28T20:50:09.389Z,20.40
2022-08-28T20:52:36.134Z,20.40
2022-08-28T20:55:03.896Z,20.30
2022-08-28T20:57:30.621Z,20.30
2022-08-28T20:59:57.284Z,20.30
2022-08-28T21:02:27.103Z,20.40
2022-08-28T21:04:54.802Z,20.40
2022-08-28T21:07:24.023Z,20.40
2022-08-28T21:10:06.217Z,20.40
2022-08-28T21:12:34.905Z,20.40
2022-08-28T21:15:01.896Z,20.40
2022-08-28T21:17:29.754Z,20.40
2022-08-28T21:19:59.043Z,20.40
2022-08-28T21:22:25.975Z,20.30
2022-08-28T21:24:52.648Z,20.30
2022-08-28T21:27:19.529Z,20.30
2022-08-28T21:29:46.301Z,20.30
2022-08-28T21:32:13.566Z,20.40
2022-08-28T21:34:41.172Z,20.40
2022-08-28T21:37:07.844Z,20.40
2022-08-28T21:39:35.383Z,20.30
2022-08-28T21:42:02.088Z,20.40
2022-08-28T21:44:29.019Z,20.40
2022-08-28T21:46:55.819Z,20.40
2022-08-28T21:49:23.126Z,20.30
2022-08-28T21:51:50.647Z,20.40
2022-08-28T21:54:18.606Z,20.40
2022-08-28T21:56:46.399Z,20.40
2022-08-28T21:59:15.103Z,20.30
2022-08-28T22:01:41.969Z,20.40
2022-08-28T22:04:09.118Z,20.30
2022-08-28T22:06:35.923Z,20.30
2022-08-28T22:09:05.435Z,20.30
2022-08-28T22:11:32.834Z,20.30
2022-08-28T22:13:59.560Z,20.20
2022-08-28T22:16:27.707Z,20.30
2022-08-28T22:18:54.686Z,20.20
2022-08-28T22:21:43.051Z,20.20
2022-08-28T22:24:10.647Z,20.20
2022-08-28T22:26:37.842Z,20.20
2022-08-28T22:29:05.453Z,20.10
2022-08-28T22:31:33.308Z,20.10
2022-08-28T22:34:00.065Z,20.10
2022-08-28T22:36:29.242Z,20.10
2022-08-28T22:38:56.979Z,20.10
2022-08-28T22:41:24.198Z,20.10
2022-08-28T22:43:51.590Z,20.10
2022-08-28T22:46:20.641Z,20.10
2022-08-28T22:48:47.758Z,20.10
2022-08-28T22:51:18.300Z,20.10
2022-08-28T22:53:45.192Z,20.10
2022-08-28T22:56:13.033Z,20.10
2022-08-28T22:58:40.328Z,20.10
2022-08-28T23:01:15.808Z,20.10
2022-08-28T23:03:42.774Z,20.10
2022-08-28T23:06:09.744Z,20.10
2022-08-28T23:08:36.837Z,20.10
2022-08-28T23:11:04.083Z,20.10
2022-08-28T23:13:31.651Z,20.10
2022-08-28T23:15:59.588Z,20.00
2022-08-28T23:18:26.556Z,20.00
2022-08-28T23:20:55.232Z,20.00
2022-08-28T23:23:24.011Z,20.00
2022-08-28T23:25:51.240Z,20.00
2022-08-28T23:28:18.943Z,20.00
2022-08-28T23:30:49.829Z,20.00
2022-08-28T23:33:23.251Z,20.00
2022-08-28T23:35:51.405Z,20.00
2022-08-28T23:38:18.155Z,20.00
2022-08-28T23:40:44.876Z,20.00
2022-08-28T23:43:12.164Z,20.10
2022-08-28T23:45:40.574Z,20.10
2022-08-28T23:48:08.074Z,20.10
2022-08-28T23:50:35.571Z,20.10
2022-08-28T23:53:03.863Z,20.10
2022-08-28T23:55:31.094Z,20.00
2022-08-28T23:58:00.335Z,20.10
